Time;durP1;ratioP1;P1;durP2;ratioP2;P2;SDS_P1;SDS_P2;PMS_P1;PMS_P2;Temp;Humidity;BMP_temperature;BMP_pressure;BME280_temperature;BME280_humidity;BME280_pressure;Samples;Min_cycle;Max_cycle;Signal;HPM_P1;HPM_P2
2024/05/03 00:01:33;;;;;;;1.58;1.15;;;;;;;11.79;94.41;99245.84;5251046;27;20017;-54
2024/05/03 00:03:59;;;;;;;0.95;0.80;;;;;;;11.78;94.73;99244.22;5258180;27;20010;-55
2024/05/03 00:06:24;;;;;;;1.00;0.90;;;;;;;11.74;94.40;99238.56;5253212;27;20018;-55
2024/05/03 00:08:49;;;;;;;0.60;0.60;;;;;;;11.78;94.16;99249.41;5245853;27;20085;-54
2024/05/03 00:11:15;;;;;;;0.70;0.70;;;;;;;11.78;94.11;99254.63;5274868;27;20018;-54
2024/05/03 00:13:40;;;;;;;0.60;0.60;;;;;;;11.76;94.31;99246.22;5262158;27;20022;-55
2024/05/03 00:16:05;;;;;;;0.80;0.80;;;;;;;11.77;94.10;99253.03;5249239;27;20003;-56
2024/05/03 00:18:31;;;;;;;0.85;0.80;;;;;;;11.72;94.54;99245.78;5274611;27;20077;-54
2024/05/03 00:20:56;;;;;;;0.75;0.75;;;;;;;11.74;94.06;99254.19;5261570;27;20003;-54
2024/05/03 00:23:22;;;;;;;0.73;0.73;;;;;;;11.72;94.16;99250.97;5266191;27;20006;-55
2024/05/03 00:25:47;;;;;;;1.00;0.90;;;;;;;11.70;94.19;99252.16;5255942;27;20041;-56
2024/05/03 00:28:13;;;;;;;0.80;0.80;;;;;;;11.72;94.04;99256.16;5256492;27;20466;-54
2024/05/03 00:30:38;;;;;;;1.02;0.80;;;;;;;11.71;94.35;99251.16;5255770;27;20061;-54
2024/05/03 00:33:03;;;;;;;0.63;0.63;;;;;;;11.70;93.78;99250.38;5245805;27;20006;-55
2024/05/03 00:35:29;;;;;;;0.95;0.80;;;;;;;11.69;94.33;99269.56;5264794;27;20013;-55
2024/05/03 00:37:54;;;;;;;0.60;0.60;;;;;;;11.69;94.00;99266.16;5261558;27;20021;-54
2024/05/03 00:40:20;;;;;;;0.98;0.88;;;;;;;11.67;93.81;99273.34;5272960;27;20034;-56
2024/05/03 00:42:45;;;;;;;0.73;0.73;;;;;;;11.32;93.53;99223.91;5249067;27;19999;-55
2024/05/03 00:45:11;;;;;;;0.52;0.52;;;;;;;11.66;94.02;99267.34;5273665;27;20017;-54
2024/05/03 00:47:36;;;;;;;0.95;0.70;;;;;;;11.65;93.82;99270.16;5251887;27;20047;-55
2024/05/03 00:50:02;;;;;;;0.80;0.70;;;;;;;11.64;92.92;99274.53;5260873;27;20008;-55
2024/05/03 00:52:27;;;;;;;0.70;0.70;;;;;;;11.63;93.19;99272.13;5265780;27;20018;-55
2024/05/03 00:54:54;;;;;;;0.73;0.73;;;;;;;11.62;93.24;99280.91;5258669;27;20462;-54
2024/05/03 00:57:19;;;;;;;0.80;0.80;;;;;;;11.50;93.36;99263.25;5261627;27;20006;-54
2024/05/03 00:59:45;;;;;;;3.30;1.00;;;;;;;11.59;93.54;99279.50;5273633;27;20466;-55
2024/05/03 01:02:11;;;;;;;0.90;0.90;;;;;;;11.58;93.74;99279.69;5246523;27;20017;-54
2024/05/03 01:04:37;;;;;;;1.33;1.33;;;;;;;11.57;94.06;99278.06;5264521;27;20378;-55
2024/05/03 01:07:02;;;;;;;0.68;0.68;;;;;;;11.55;94.12;99286.88;5259850;27;20002;-56
2024/05/03 01:09:28;;;;;;;0.85;0.73;;;;;;;11.42;93.76;99276.38;5245496;27;20015;-54
2024/05/03 01:11:53;;;;;;;0.70;0.70;;;;;;;11.54;94.33;99302.66;5259154;27;20006;-54
2024/05/03 01:14:18;;;;;;;1.10;1.00;;;;;;;11.51;93.95;99301.25;5244780;27;20038;-54
2024/05/03 01:16:44;;;;;;;0.80;0.80;;;;;;;11.51;94.28;99301.25;5256853;27;20025;-54
2024/05/03 01:19:09;;;;;;;0.80;0.80;;;;;;;11.51;93.77;99305.66;5262266;27;20003;-54
2024/05/03 01:22:04;;;;;;;1.02;0.90;;;;;;;11.50;94.37;99304.84;5253068;27;20014;-55
2024/05/03 01:24:29;;;;;;;0.88;0.80;;;;;;;11.49;93.96;99307.63;5236800;27;20007;-55
2024/05/03 01:26:54;;;;;;;0.85;0.70;;;;;;;11.46;93.68;99308.78;5270526;27;20006;-55
2024/05/03 01:29:20;;;;;;;1.42;0.90;;;;;;;11.45;94.41;99309.78;5245696;27;20084;-54
2024/05/03 01:31:45;;;;;;;0.98;0.88;;;;;;;11.44;94.47;99310.78;5246607;27;20003;-55
2024/05/03 01:34:10;;;;;;;0.80;0.80;;;;;;;11.43;93.94;99311.75;5269353;27;20018;-55
2024/05/03 01:36:36;;;;;;;1.20;1.05;;;;;;;11.41;94.66;99325.94;5272537;27;20006;-56
2024/05/03 01:39:01;;;;;;;0.80;0.80;;;;;;;11.39;94.42;99323.53;5272662;27;20029;-54
2024/05/03 01:41:29;;;;;;;0.77;0.77;;;;;;;11.25;94.51;99303.63;5266071;27;20073;-54
2024/05/03 01:43:55;;;;;;;0.95;0.90;;;;;;;11.23;95.12;99318.59;5259211;27;20018;-54
2024/05/03 01:46:20;;;;;;;0.95;0.93;;;;;;;11.32;95.17;99333.06;5246421;27;20003;-55
2024/05/03 01:48:46;;;;;;;1.20;1.00;;;;;;;11.30;94.92;99337.63;5257627;27;20013;-54
2024/05/03 01:51:11;;;;;;;1.00;0.90;;;;;;;11.29;95.45;99337.84;5262153;27;20014;-55
2024/05/03 01:53:36;;;;;;;1.00;0.90;;;;;;;11.27;95.56;99351.00;5272598;27;20045;-56
2024/05/03 01:56:02;;;;;;;0.90;0.88;;;;;;;11.24;95.16;99346.19;5251792;27;20006;-55
2024/05/03 01:58:27;;;;;;;0.88;0.88;;;;;;;11.22;95.31;99353.38;5266089;27;20011;-55
2024/05/03 02:00:52;;;;;;;1.00;0.90;;;;;;;11.18;96.16;99349.53;5260341;27;20002;-54
2024/05/03 02:03:18;;;;;;;1.33;1.13;;;;;;;11.14;96.22;99351.69;5268172;27;20019;-54
2024/05/03 02:05:44;;;;;;;1.27;1.00;;;;;;;11.13;96.20;99354.47;5264285;27;19999;-55
2024/05/03 02:08:09;;;;;;;1.50;1.10;;;;;;;11.10;96.79;99357.44;5270239;27;20029;-58
2024/05/03 02:10:34;;;;;;;1.20;1.10;;;;;;;11.09;96.89;99364.44;5265610;27;20022;-55
2024/05/03 02:13:00;;;;;;;0.82;0.80;;;;;;;10.87;96.48;99331.63;5251820;27;20007;-55
2024/05/03 02:15:25;;;;;;;1.20;1.00;;;;;;;11.05;96.70;99370.97;5256952;27;20007;-55
2024/05/03 02:17:51;;;;;;;1.40;1.20;;;;;;;11.06;97.21;99374.38;5248858;27;20007;-55
2024/05/03 02:20:17;;;;;;;1.20;1.00;;;;;;;11.06;97.07;99379.56;5262374;27;20010;-55
2024/05/03 02:22:42;;;;;;;1.00;1.00;;;;;;;11.03;96.51;99374.75;5252052;27;20022;-55
2024/05/03 02:25:08;;;;;;;1.05;0.95;;;;;;;11.01;96.98;99377.53;5270189;27;20020;-55
2024/05/03 02:27:33;;;;;;;1.00;0.90;;;;;;;10.98;97.34;99377.09;5255190;27;20054;-55
2024/05/03 02:29:58;;;;;;;1.10;0.90;;;;;;;10.98;97.11;99387.50;5262396;27;20015;-55
2024/05/03 02:32:24;;;;;;;1.00;0.90;;;;;;;10.95;97.19;99393.81;5262692;27;19998;-55
2024/05/03 02:34:49;;;;;;;0.95;0.88;;;;;;;10.92;97.20;99400.19;5257956;27;20002;-55
2024/05/03 02:37:14;;;;;;;1.27;1.10;;;;;;;10.89;97.39;99399.75;5258730;27;20018;-54
2024/05/03 02:39:40;;;;;;;0.90;0.80;;;;;;;10.87;97.30;99401.75;5247580;27;20018;-55
2024/05/03 02:42:05;;;;;;;1.10;0.80;;;;;;;10.85;97.74;99404.53;5252675;27;20021;-55
2024/05/03 02:44:30;;;;;;;0.85;0.85;;;;;;;10.83;97.50;99421.28;5262528;27;20010;-54
2024/05/03 02:46:56;;;;;;;1.20;0.90;;;;;;;10.80;97.25;99408.63;5262302;27;20055;-54
2024/05/03 02:49:21;;;;;;;1.88;0.95;;;;;;;10.54;97.71;99390.91;5270002;27;19999;-53
2024/05/03 02:51:46;;;;;;;3.38;1.20;;;;;;;10.76;97.07;99417.78;5252386;27;20618;-54
2024/05/03 02:54:12;;;;;;;1.00;0.90;;;;;;;10.74;97.40;99423.16;5254332;27;20003;-54
2024/05/03 02:56:37;;;;;;;0.70;0.70;;;;;;;10.73;98.05;99420.75;5251428;27;20007;-54
2024/05/03 02:59:03;;;;;;;2.13;0.93;;;;;;;10.71;97.48;99420.94;5274226;27;20018;-53
2024/05/03 03:01:28;;;;;;;1.20;1.05;;;;;;;10.26;97.81;99364.78;5251871;27;20332;-55
2024/05/03 03:03:55;;;;;;;0.95;0.88;;;;;;;10.67;97.89;99432.63;5260532;27;20077;-53
2024/05/03 03:06:21;;;;;;;1.13;1.02;;;;;;;10.67;97.79;99430.03;5260083;27;20017;-54
2024/05/03 03:08:46;;;;;;;1.10;1.00;;;;;;;10.66;97.61;99438.81;5261938;27;20368;-56
2024/05/03 03:11:16;;;;;;;1.40;1.05;;;;;;;10.64;97.78;99435.59;5264574;27;20021;-53
2024/05/03 03:13:42;;;;;;;2.03;1.00;;;;;;;10.29;97.78;99380.84;5260708;27;20006;-55
2024/05/03 03:16:07;;;;;;;2.10;1.10;;;;;;;10.62;98.15;99424.59;5274263;27;20052;-55
2024/05/03 03:18:33;;;;;;;1.45;1.23;;;;;;;10.62;98.21;99432.38;5262418;27;20029;-56
2024/05/03 03:20:59;;;;;;;1.30;1.17;;;;;;;10.61;98.29;99443.75;5257706;27;20006;-57
2024/05/03 03:23:26;;;;;;;1.15;1.05;;;;;;;10.23;98.00;99391.91;5261579;27;20007;-55
2024/05/03 03:25:51;;;;;;;1.90;0.90;;;;;;;10.54;98.13;99448.03;5262671;27;20077;-56
2024/05/03 03:28:17;;;;;;;1.80;1.10;;;;;;;10.58;98.03;99457.09;5255329;27;20014;-55
2024/05/03 03:30:42;;;;;;;1.45;1.33;;;;;;;10.58;97.99;99472.66;5252524;27;20003;-55
2024/05/03 03:33:07;;;;;;;1.17;1.08;;;;;;;10.57;97.78;99468.47;5257213;27;20007;-56
2024/05/03 03:35:33;;;;;;;1.27;1.17;;;;;;;10.55;97.59;99470.41;5262013;27;20078;-56
2024/05/03 03:38:04;;;;;;;1.00;0.90;;;;;;;10.53;98.03;99480.16;5266565;27;20010;-55
2024/05/03 03:40:32;;;;;;;1.33;1.10;;;;;;;10.15;97.74;99427.47;5266463;27;20559;-55
2024/05/03 03:42:58;;;;;;;1.35;1.10;;;;;;;10.50;97.41;99488.31;5257641;27;20725;-55
2024/05/03 03:45:23;;;;;;;1.20;0.90;;;;;;;10.49;98.09;99494.50;5270447;27;20054;-55
2024/05/03 03:47:49;;;;;;;1.23;1.05;;;;;;;10.48;97.36;99508.47;5254708;27;20021;-56
2024/05/03 03:50:16;;;;;;;1.25;1.15;;;;;;;10.46;97.33;99511.22;5272899;27;20702;-56
2024/05/03 03:52:41;;;;;;;1.15;1.05;;;;;;;10.20;97.62;99470.06;5252889;27;20032;-56
2024/05/03 03:55:07;;;;;;;1.40;1.20;;;;;;;10.43;97.76;99509.00;5261184;27;20073;-55
2024/05/03 03:57:33;;;;;;;1.33;1.23;;;;;;;10.42;97.74;99507.38;5269151;27;20460;-56
2024/05/03 03:59:58;;;;;;;1.30;1.20;;;;;;;10.42;97.77;99511.78;5264719;27;20003;-55
2024/05/03 04:02:23;;;;;;;1.58;1.25;;;;;;;10.40;97.23;99524.91;5266193;27;20002;-55
2024/05/03 04:04:48;;;;;;;1.30;1.20;;;;;;;10.39;97.13;99527.66;5260606;27;20018;-55
2024/05/03 04:07:14;;;;;;;0.80;0.80;;;;;;;10.38;97.58;99532.06;5259332;27;20367;-55
2024/05/03 04:09:39;;;;;;;1.60;1.13;;;;;;;10.38;97.17;99536.44;5260465;27;20471;-55
2024/05/03 04:12:05;;;;;;;1.02;0.93;;;;;;;10.27;96.86;99519.50;5266908;27;20053;-55
2024/05/03 04:14:31;;;;;;;1.90;1.10;;;;;;;10.37;96.60;99546.00;5254360;27;20014;-56
2024/05/03 04:16:56;;;;;;;1.67;1.35;;;;;;;10.38;97.04;99552.00;5264641;27;20030;-56
2024/05/03 04:19:21;;;;;;;1.20;1.10;;;;;;;10.35;97.06;99556.56;5258625;27;20002;-55
2024/05/03 04:21:47;;;;;;;1.02;0.93;;;;;;;10.36;96.70;99560.78;5258872;27;20022;-55
2024/05/03 04:24:13;;;;;;;1.42;1.33;;;;;;;10.25;96.52;99545.63;5258161;27;20003;-56
2024/05/03 04:26:38;;;;;;;1.80;1.20;;;;;;;10.23;96.49;99544.19;5260254;27;20018;-56
2024/05/03 04:29:04;;;;;;;1.50;1.30;;;;;;;10.38;96.58;99581.38;5259815;27;20540;-56
2024/05/03 04:31:29;;;;;;;1.30;1.20;;;;;;;10.36;95.72;99570.34;5259280;27;20013;-55
2024/05/03 04:33:54;;;;;;;2.08;1.10;;;;;;;10.27;95.68;99556.63;5270641;27;20006;-56
2024/05/03 04:36:20;;;;;;;1.20;1.10;;;;;;;10.38;95.71;99578.75;5263451;27;20081;-56
2024/05/03 04:38:46;;;;;;;1.10;1.00;;;;;;;10.39;95.10;99590.75;5266479;27;20006;-57
2024/05/03 04:41:11;;;;;;;1.52;1.20;;;;;;;10.40;95.25;99591.56;5260236;27;20018;-57
2024/05/03 04:43:37;;;;;;;2.83;1.33;;;;;;;10.41;95.27;99598.38;5261128;27;20022;-55
2024/05/03 04:46:03;;;;;;;1.63;1.17;;;;;;;10.40;94.80;99601.94;5259592;27;20047;-56
2024/05/03 04:48:29;;;;;;;2.30;1.20;;;;;;;10.42;95.14;99602.59;5263533;27;20057;-55
2024/05/03 04:50:55;;;;;;;1.40;1.20;;;;;;;10.43;94.28;99609.41;5258304;27;20011;-54
2024/05/03 04:53:20;;;;;;;1.10;1.00;;;;;;;10.44;94.41;99613.63;5266470;27;20002;-56
2024/05/03 04:55:45;;;;;;;2.28;1.00;;;;;;;10.37;94.13;99595.31;5273739;27;20473;-55
2024/05/03 04:58:11;;;;;;;1.20;1.10;;;;;;;10.46;93.68;99619.44;5273110;27;20778;-55
2024/05/03 05:00:36;;;;;;;0.98;0.90;;;;;;;10.47;93.35;99634.84;5260828;27;20424;-57
2024/05/03 05:03:02;;;;;;;1.33;1.23;;;;;;;10.47;93.58;99637.44;5267017;27;20010;-56
2024/05/03 05:05:27;;;;;;;2.75;0.98;;;;;;;10.49;93.96;99647.63;5265984;27;20017;-55
2024/05/03 05:07:52;;;;;;;1.25;1.10;;;;;;;10.49;94.07;99651.03;5267265;27;20044;-57
2024/05/03 05:10:18;;;;;;;1.27;1.10;;;;;;;10.49;93.69;99653.63;5266650;27;20002;-55
2024/05/03 05:12:44;;;;;;;1.02;0.93;;;;;;;10.49;93.10;99673.59;5254427;27;20006;-55
2024/05/03 05:15:10;;;;;;;1.23;1.05;;;;;;;9.95;92.90;99582.78;5267875;27;20112;-57
2024/05/03 05:17:35;;;;;;;1.13;1.02;;;;;;;10.42;93.21;99657.13;5272806;27;20006;-56
2024/05/03 05:20:00;;;;;;;1.80;1.20;;;;;;;10.54;93.03;99666.88;5267272;27;20684;-55
2024/05/03 05:22:26;;;;;;;1.30;1.20;;;;;;;10.58;93.14;99673.38;5265535;27;20688;-55
2024/05/03 05:24:52;;;;;;;1.10;1.00;;;;;;;10.56;92.82;99680.53;5269803;27;20076;-57
2024/05/03 05:27:19;;;;;;;1.15;0.93;;;;;;;10.63;92.90;99688.44;5267230;27;20458;-55
2024/05/03 05:29:45;;;;;;;2.05;1.10;;;;;;;10.65;92.89;99682.06;5273611;27;20369;-56
2024/05/03 05:32:10;;;;;;;1.33;1.10;;;;;;;10.68;92.47;99688.69;5262071;27;20002;-55
2024/05/03 05:34:36;;;;;;;1.35;0.90;;;;;;;10.42;91.77;99651.91;5253077;27;20385;-56
2024/05/03 05:37:01;;;;;;;1.55;0.98;;;;;;;10.74;92.03;99708.00;5262076;27;20053;-55
2024/05/03 05:39:26;;;;;;;1.48;1.00;;;;;;;10.74;91.84;99708.81;5267716;27;19998;-55
2024/05/03 05:41:51;;;;;;;1.50;1.10;;;;;;;10.72;91.04;99710.75;5269135;27;20014;-56
2024/05/03 05:44:17;;;;;;;1.02;0.70;;;;;;;10.72;91.69;99713.38;5267279;27;20084;-55
2024/05/03 05:46:44;;;;;;;1.23;0.90;;;;;;;10.62;91.58;99707.59;5252535;27;20019;-56
2024/05/03 05:49:10;;;;;;;1.60;1.20;;;;;;;10.70;91.84;99733.50;5267719;27;20002;-55
2024/05/03 05:51:37;;;;;;;1.42;0.98;;;;;;;10.69;91.41;99731.09;5263208;27;20021;-56
2024/05/03 05:54:05;;;;;;;0.73;0.70;;;;;;;10.68;90.66;99734.63;5260427;27;20041;-56
2024/05/03 05:56:31;;;;;;;2.50;1.27;;;;;;;10.63;90.78;99737.75;5259216;27;20503;-58
2024/05/03 05:58:57;;;;;;;1.15;1.05;;;;;;;10.69;90.91;99744.06;5265346;27;20018;-56
2024/05/03 06:01:30;;;;;;;1.00;0.90;;;;;;;10.66;90.46;99760.78;5261901;27;20017;-56
2024/05/03 06:03:57;;;;;;;1.20;1.10;;;;;;;10.66;90.60;99750.38;5266686;27;20010;-55
2024/05/03 06:06:23;;;;;;;0.80;0.80;;;;;;;10.65;90.11;99751.38;5261856;27;20017;-57
2024/05/03 06:08:48;;;;;;;1.00;0.90;;;;;;;10.67;89.91;99746.81;5258213;27;20003;-56
2024/05/03 06:11:14;;;;;;;0.98;0.80;;;;;;;10.77;89.59;99754.38;5267990;27;20470;-57
2024/05/03 06:13:40;;;;;;;2.40;0.95;;;;;;;10.80;89.76;99760.03;5267259;27;20040;-58
2024/05/03 06:16:05;;;;;;;1.48;0.80;;;;;;;10.81;88.97;99766.84;5267872;27;20011;-56
2024/05/03 06:18:30;;;;;;;1.00;0.90;;;;;;;10.83;88.13;99782.28;5270539;27;20034;-56
2024/05/03 06:20:56;;;;;;;1.05;0.95;;;;;;;10.82;87.78;99767.69;5266054;27;20067;-55
2024/05/03 06:23:21;;;;;;;0.98;0.98;;;;;;;10.81;88.10;99760.84;5270382;27;20814;-55
2024/05/03 06:25:46;;;;;;;0.80;0.80;;;;;;;10.86;88.00;99771.53;5271137;27;20020;-56
2024/05/03 06:28:12;;;;;;;1.17;1.08;;;;;;;10.91;88.24;99777.81;5250605;27;20003;-55
2024/05/03 06:30:37;;;;;;;0.85;0.82;;;;;;;10.68;87.85;99738.03;5266299;27;20006;-55
2024/05/03 06:33:04;;;;;;;1.10;1.02;;;;;;;11.00;87.27;99785.56;5267124;27;20002;-56
2024/05/03 06:35:31;;;;;;;0.73;0.73;;;;;;;10.67;87.41;99739.03;5294059;21;20100;-58
2024/05/03 06:37:56;;;;;;;1.65;0.90;;;;;;;10.96;87.77;99805.91;5278991;27;20381;-58
2024/05/03 06:40:22;;;;;;;0.68;0.68;;;;;;;10.94;87.13;99818.22;5301865;26;19997;-58
2024/05/03 06:42:47;;;;;;;0.75;0.75;;;;;;;10.86;86.66;99795.72;5292322;26;19999;-59
2024/05/03 06:45:13;;;;;;;1.38;0.98;;;;;;;10.70;86.70;99769.84;5307828;26;20477;-59
2024/05/03 06:47:40;;;;;;;0.93;0.93;;;;;;;10.92;86.10;99795.03;5300837;26;20380;-58
2024/05/03 06:50:05;;;;;;;0.98;0.93;;;;;;;10.94;86.68;99810.44;5306263;27;20421;-58
2024/05/03 06:52:31;;;;;;;0.80;0.80;;;;;;;10.85;85.55;99801.91;5311987;26;20013;-58
2024/05/03 06:54:56;;;;;;;1.25;0.80;;;;;;;11.06;86.45;99834.22;5303336;26;20338;-57
2024/05/03 06:57:21;;;;;;;0.70;0.70;;;;;;;11.10;86.39;99832.94;5302005;26;20342;-57
2024/05/03 06:59:48;;;;;;;0.75;0.75;;;;;;;11.17;86.37;99834.66;5298229;26;20349;-58
2024/05/03 07:02:14;;;;;;;1.17;0.80;;;;;;;11.16;86.02;99824.44;5305808;26;20083;-58
2024/05/03 07:04:39;;;;;;;0.70;0.70;;;;;;;11.26;85.10;99838.00;5301453;26;20451;-58
2024/05/03 07:07:06;;;;;;;0.82;0.80;;;;;;;11.26;85.12;99843.19;5306650;26;19998;-59
2024/05/03 07:09:31;;;;;;;0.80;0.80;;;;;;;11.18;84.93;99843.25;5309840;26;19998;-58
2024/05/03 07:11:56;;;;;;;0.75;0.75;;;;;;;11.24;84.30;99845.97;5302508;26;20482;-58
2024/05/03 07:14:24;;;;;;;0.90;0.90;;;;;;;11.24;84.70;99852.97;5301939;26;20013;-54
2024/05/03 07:16:53;;;;;;;1.10;0.93;;;;;;;11.22;84.56;99831.56;5295215;26;20018;-58
2024/05/03 07:19:19;;;;;;;0.88;0.77;;;;;;;11.07;84.40;99809.88;5306233;26;20469;-57
2024/05/03 07:21:44;;;;;;;1.02;0.82;;;;;;;11.32;84.09;99850.28;5305974;26;20017;-58
2024/05/03 07:24:10;;;;;;;1.00;0.90;;;;;;;11.40;83.50;99865.84;5306609;26;20366;-58
2024/05/03 07:26:35;;;;;;;0.88;0.80;;;;;;;11.44;84.04;99863.69;5300807;26;20080;-57
2024/05/03 07:29:02;;;;;;;0.80;0.80;;;;;;;11.49;84.22;99872.63;5299777;27;20006;-58
2024/05/03 07:31:31;;;;;;;0.55;0.55;;;;;;;11.52;83.70;99868.84;5302522;26;20083;-57
2024/05/03 07:33:58;;;;;;;0.80;0.80;;;;;;;11.45;84.37;99873.91;5300222;27;20388;-57
2024/05/03 07:36:23;;;;;;;1.45;1.10;;;;;;;11.39;83.77;99877.22;5298186;26;20025;-58
2024/05/03 07:38:48;;;;;;;1.30;0.70;;;;;;;11.45;83.91;99886.13;5299646;26;20010;-57
2024/05/03 07:41:15;;;;;;;1.45;1.10;;;;;;;11.45;84.10;99884.31;5303465;26;20013;-57
2024/05/03 07:43:41;;;;;;;0.90;0.70;;;;;;;11.49;83.90;99892.59;5302941;26;20042;-57
2024/05/03 07:46:09;;;;;;;2.03;1.02;;;;;;;11.47;83.42;99899.75;5306188;26;20079;-60
2024/05/03 07:48:35;;;;;;;0.80;0.80;;;;;;;11.44;82.92;99902.69;5303298;27;20068;-57
2024/05/03 07:51:00;;;;;;;1.55;0.93;;;;;;;11.43;82.85;99898.47;5302223;27;20010;-60
2024/05/03 07:53:26;;;;;;;1.13;0.80;;;;;;;11.38;82.58;99903.41;5305948;26;20001;-58
2024/05/03 07:55:51;;;;;;;7.32;1.10;;;;;;;11.37;82.27;99907.78;5300891;26;20475;-57
2024/05/03 07:58:16;;;;;;;2.63;1.10;;;;;;;11.25;82.69;99881.38;5306748;26;20001;-56
2024/05/03 08:00:42;;;;;;;3.28;1.10;;;;;;;11.44;82.75;99903.50;5305903;26;20002;-60
2024/05/03 08:03:07;;;;;;;1.08;0.88;;;;;;;11.58;82.12;99909.75;5283611;27;20020;-59
2024/05/03 08:05:32;;;;;;;1.23;0.93;;;;;;;11.77;82.83;99924.09;5298075;26;20016;-57
2024/05/03 08:07:58;;;;;;;0.82;0.82;;;;;;;11.86;81.38;99902.25;5302062;27;20006;-57
2024/05/03 08:10:23;;;;;;;0.90;0.80;;;;;;;12.05;79.95;99912.16;5304317;26;20094;-57
2024/05/03 08:12:48;;;;;;;1.67;0.98;;;;;;;12.26;80.32;99923.66;5308139;26;20060;-57
2024/05/03 08:15:14;;;;;;;1.40;1.00;;;;;;;11.95;78.21;99867.38;5306722;26;20083;-59
2024/05/03 08:17:39;;;;;;;1.38;0.93;;;;;;;11.84;78.46;99860.78;5304962;26;20016;-57
2024/05/03 08:20:06;;;;;;;1.38;0.80;;;;;;;12.31;78.78;99939.59;5306454;27;20006;-56
2024/05/03 08:22:32;;;;;;;1.63;1.00;;;;;;;12.24;78.20;99920.44;5306818;26;20339;-56
2024/05/03 08:24:59;;;;;;;0.82;0.80;;;;;;;12.32;77.76;99944.59;5306005;26;20490;-57
2024/05/03 08:27:24;;;;;;;1.10;0.90;;;;;;;12.35;77.83;99952.06;5302192;26;20752;-57
2024/05/03 08:29:50;;;;;;;1.30;0.82;;;;;;;12.46;78.16;99953.44;5290190;27;20010;-57
2024/05/03 08:32:15;;;;;;;1.70;0.90;;;;;;;12.63;77.72;99944.44;5289908;27;20466;-57
2024/05/03 08:34:40;;;;;;;1.10;0.75;;;;;;;12.78;77.24;99943.63;5287046;26;20017;-61
2024/05/03 08:37:06;;;;;;;1.63;0.90;;;;;;;12.85;77.69;99944.53;5287781;27;20014;-58
2024/05/03 08:39:31;;;;;;;2.00;1.02;;;;;;;13.14;76.72;99957.53;5289986;26;20084;-57
2024/05/03 08:42:08;;;;;;;1.25;0.88;;;;;;;13.22;75.98;99957.47;5287375;27;20440;-61
2024/05/03 08:44:38;;;;;;;1.90;0.90;;;;;;;13.37;75.06;99962.63;5283501;27;20014;-57
2024/05/03 08:47:09;;;;;;;0.80;0.70;;;;;;;13.34;75.88;99962.16;5285411;27;20005;-57
2024/05/03 08:50:11;;;;;;;1.33;0.88;;;;;;;13.34;75.27;99983.03;5286732;27;20358;-58
2024/05/03 08:52:48;;;;;;;1.88;1.13;;;;;;;13.23;75.53;99974.72;5270229;27;20016;-57
2024/05/03 08:55:15;;;;;;;1.20;1.00;;;;;;;13.26;75.76;99990.00;5285017;27;20002;-57
2024/05/03 08:57:44;;;;;;;1.05;0.95;;;;;;;13.21;76.10;99979.28;5289318;26;20006;-57
2024/05/03 09:00:12;;;;;;;1.25;1.13;;;;;;;13.26;76.12;99976.94;5280520;27;20002;-58
2024/05/03 09:02:37;;;;;;;2.17;1.00;;;;;;;13.25;77.16;99983.16;5306967;26;20002;-54
2024/05/03 09:05:03;;;;;;;1.63;0.93;;;;;;;13.51;77.24;99997.50;5299033;27;20374;-57
2024/05/03 09:07:36;;;;;;;1.50;1.00;;;;;;;13.55;76.01;100003.94;5306228;26;20037;-58
2024/05/03 09:10:02;;;;;;;1.23;1.05;;;;;;;13.50;75.84;100007.13;5305931;26;20703;-58
2024/05/03 09:12:41;;;;;;;2.78;0.90;;;;;;;13.45;76.81;100011.25;5306481;26;20408;-57
2024/05/03 09:15:09;;;;;;;1.20;1.08;;;;;;;13.05;77.28;99931.72;5307510;27;20002;-57
2024/05/03 09:17:35;;;;;;;1.35;1.05;;;;;;;13.53;76.36;100008.56;5307766;26;20076;-58
2024/05/03 09:20:00;;;;;;;1.10;1.00;;;;;;;13.52;77.30;100014.75;5305878;26;20418;-58
2024/05/03 09:22:26;;;;;;;1.20;1.10;;;;;;;13.46;77.20;100016.28;5307515;26;20469;-55
2024/05/03 09:24:51;;;;;;;0.95;0.90;;;;;;;13.13;76.91;99958.50;5305850;26;20006;-57
2024/05/03 09:27:23;;;;;;;1.50;1.10;;;;;;;13.52;78.06;100009.53;5307330;26;20010;-57
2024/05/03 09:29:49;;;;;;;1.35;1.10;;;;;;;13.60;75.88;100012.03;5306615;26;20351;-57
2024/05/03 09:32:14;;;;;;;1.55;1.45;;;;;;;13.80;75.54;99984.34;5307350;26;20005;-55
2024/05/03 09:34:40;;;;;;;3.13;0.90;;;;;;;14.09;73.62;99986.00;5299304;26;20081;-60
2024/05/03 09:37:08;;;;;;;2.33;1.25;;;;;;;14.18;72.46;99999.75;5307022;27;20013;-57
2024/05/03 09:39:34;;;;;;;1.42;1.08;;;;;;;14.37;71.77;99993.03;5307594;26;20002;-57
2024/05/03 09:41:59;;;;;;;1.63;1.08;;;;;;;14.59;70.85;99993.84;5306775;26;20001;-55
2024/05/03 09:44:24;;;;;;;0.77;0.70;;;;;;;14.56;68.79;100000.25;5308141;26;20013;-57
2024/05/03 09:46:50;;;;;;;1.20;1.00;;;;;;;14.07;67.01;99901.03;5308121;26;20017;-57
2024/05/03 09:49:47;;;;;;;1.42;1.20;;;;;;;14.72;67.33;100009.59;5308254;26;20432;-56
2024/05/03 09:52:34;;;;;;;1.23;0.90;;;;;;;14.94;66.61;100010.31;5307442;27;20454;-59
2024/05/03 09:55:17;;;;;;;1.02;0.90;;;;;;;15.13;63.90;100025.31;5306896;26;20425;-57
2024/05/03 09:57:42;;;;;;;1.30;0.80;;;;;;;14.93;63.46;100021.78;5280576;26;20002;-58
2024/05/03 10:00:11;;;;;;;1.38;0.80;;;;;;;14.78;65.61;100011.44;5277293;27;20021;-57
2024/05/03 10:02:52;;;;;;;0.98;0.80;;;;;;;14.85;66.10;100020.16;5276614;27;20006;-57
2024/05/03 10:05:21;;;;;;;0.80;0.70;;;;;;;14.72;64.09;100012.22;5283295;27;20017;-56
2024/05/03 10:07:47;;;;;;;1.83;0.80;;;;;;;14.06;65.08;99959.47;5291734;27;20466;-56
2024/05/03 10:10:13;;;;;;;1.38;0.73;;;;;;;14.10;64.67;100008.50;5297179;26;20006;-57
2024/05/03 10:12:39;;;;;;;1.08;0.70;;;;;;;14.04;65.71;100061.47;5297264;26;20002;-57
2024/05/03 10:15:06;;;;;;;0.70;0.70;;;;;;;13.90;66.83;100025.81;5295876;27;20006;-58
2024/05/03 10:17:33;;;;;;;1.00;0.80;;;;;;;13.74;67.93;100039.06;5299593;26;20016;-57
2024/05/03 10:19:58;;;;;;;1.40;0.90;;;;;;;13.64;68.33;100015.91;5304903;27;20006;-57
2024/05/03 10:22:24;;;;;;;1.60;0.63;;;;;;;13.73;68.38;100038.25;5291335;27;20026;-57
2024/05/03 10:24:52;;;;;;;1.67;1.05;;;;;;;13.75;68.23;100031.03;5291181;27;20371;-57
2024/05/03 10:27:17;;;;;;;1.10;1.00;;;;;;;13.75;69.14;100028.44;5284609;26;20009;-57
2024/05/03 10:29:48;;;;;;;2.30;1.10;;;;;;;13.81;69.36;100043.38;5310464;26;20018;-59
2024/05/03 10:32:26;;;;;;;1.17;1.00;;;;;;;13.80;70.14;100046.97;5279209;27;20010;-57
2024/05/03 10:35:02;;;;;;;1.60;1.10;;;;;;;13.68;69.94;100051.06;5277894;27;20006;-56
2024/05/03 10:37:34;;;;;;;3.17;1.00;;;;;;;13.64;70.45;100057.66;5278155;27;20006;-56
2024/05/03 10:40:00;;;;;;;0.95;0.88;;;;;;;13.44;70.89;100038.34;5280453;27;19999;-56
2024/05/03 10:42:26;;;;;;;1.08;0.93;;;;;;;13.39;71.71;100056.34;5297170;26;20008;-57
2024/05/03 10:44:51;;;;;;;1.10;1.00;;;;;;;13.12;72.82;100044.72;5295367;26;20006;-58
2024/05/03 10:47:17;;;;;;;1.05;0.90;;;;;;;13.10;73.46;100052.72;5278692;26;20002;-59
2024/05/03 10:49:42;;;;;;;1.38;1.10;;;;;;;13.01;72.78;100053.81;5291624;27;20561;-58
2024/05/03 10:52:09;;;;;;;2.83;0.95;;;;;;;12.90;71.43;100062.88;5279643;26;20017;-56
2024/05/03 10:54:35;;;;;;;1.50;1.10;;;;;;;12.91;71.62;100068.88;5279346;27;20401;-57
2024/05/03 10:57:00;;;;;;;1.45;1.00;;;;;;;12.93;72.04;100061.69;5281922;27;20002;-54
2024/05/03 10:59:26;;;;;;;1.30;0.90;;;;;;;12.98;71.60;100075.03;5297373;26;20339;-58
2024/05/03 11:01:52;;;;;;;1.15;1.05;;;;;;;13.01;71.79;100090.28;5308957;26;20010;-57
2024/05/03 11:04:17;;;;;;;2.70;1.02;;;;;;;12.87;71.04;100070.25;5291274;27;20443;-59
2024/05/03 11:06:43;;;;;;;1.42;1.33;;;;;;;12.94;70.96;100097.19;5291210;27;20480;-57
2024/05/03 11:09:09;;;;;;;1.13;1.02;;;;;;;12.66;70.85;100061.31;5291648;26;20470;-57
2024/05/03 11:11:35;;;;;;;1.70;0.93;;;;;;;12.72;70.61;100101.50;5290066;27;20005;-57
2024/05/03 11:14:01;;;;;;;1.10;1.00;;;;;;;12.52;72.47;100084.72;5297386;26;19997;-59
2024/05/03 11:16:27;;;;;;;4.07;1.08;;;;;;;12.55;72.38;100106.00;5288831;26;20006;-57
2024/05/03 11:18:53;;;;;;;1.42;0.98;;;;;;;12.53;72.84;100092.34;5293592;26;20018;-59
2024/05/03 11:21:18;;;;;;;1.70;1.15;;;;;;;12.60;73.73;100088.06;5286354;26;20088;-57
2024/05/03 11:23:47;;;;;;;1.00;0.90;;;;;;;12.63;71.75;100099.94;5308775;26;20017;-58
2024/05/03 11:26:26;;;;;;;1.42;1.05;;;;;;;12.58;71.67;100094.44;5293387;26;20001;-57
2024/05/03 11:28:54;;;;;;;1.25;0.95;;;;;;;12.62;72.35;100103.53;5281206;27;20016;-55